Time;durP1;ratioP1;P1;durP2;ratioP2;P2;SDS_P1;SDS_P2;PMS_P1;PMS_P2;Temp;Humidity;BMP_temperature;BMP_pressure;BME280_temperature;BME280_humidity;BME280_pressure;Samples;Min_cycle;Max_cycle;Signal;HPM_P1;HPM_P2
2023/04/27 00:00:42;;;;;;;23.50;10.60;;;;;;;3.41;58.24;100229.73;131370;1252;107503;-78
2023/04/27 00:03:53;;;;;;;44.50;21.50;;;;;;;3.38;58.37;100230.19;131310;1252;107528;-77
2023/04/27 00:06:59;;;;;;;31.70;14.80;;;;;;;3.34;58.47;100230.63;131384;1250;107381;-76
2023/04/27 00:10:05;;;;;;;20.40;9.50;;;;;;;3.27;58.39;100231.23;131249;1252;107201;-76
2023/04/27 00:13:11;;;;;;;41.30;12.70;;;;;;;3.22;58.80;100231.09;131351;1252;107211;-77
2023/04/27 00:16:17;;;;;;;35.30;10.10;;;;;;;3.19;58.74;100233.77;131395;1253;107607;-75
2023/04/27 00:19:23;;;;;;;55.40;13.50;;;;;;;3.15;58.51;100232.42;131284;1252;107503;-77
2023/04/27 00:22:28;;;;;;;29.50;9.70;;;;;;;3.12;58.76;100233.52;131378;1250;107495;-77
2023/04/27 00:25:34;;;;;;;18.50;8.10;;;;;;;3.10;58.81;100234.20;131340;1254;107516;-78
2023/04/27 00:28:40;;;;;;;16.30;7.50;;;;;;;3.08;58.99;100238.03;131442;1250;107362;-77
2023/04/27 00:31:45;;;;;;;12.70;7.10;;;;;;;3.05;59.01;100239.96;131366;1248;107886;-78
2023/04/27 00:34:51;;;;;;;12.20;6.20;;;;;;;3.02;59.02;100245.80;131437;1250;107252;-78
2023/04/27 00:37:56;;;;;;;14.10;6.80;;;;;;;2.95;59.11;100245.56;131411;1248;107433;-77
2023/04/27 00:41:06;;;;;;;14.20;6.70;;;;;;;2.90;59.18;100251.55;131393;1252;107545;-76
2023/04/27 00:44:12;;;;;;;14.20;6.60;;;;;;;2.86;59.22;100249.75;131433;1252;107529;-77
2023/04/27 00:47:18;;;;;;;13.50;6.40;;;;;;;2.82;59.55;100249.61;131415;1252;107614;-76
2023/04/27 00:50:30;;;;;;;13.40;6.40;;;;;;;2.78;59.33;100250.96;131372;1250;106416;-76
2023/04/27 00:53:36;;;;;;;13.90;7.40;;;;;;;2.75;59.40;100253.59;131401;1252;107419;-76
2023/04/27 00:56:42;;;;;;;13.20;6.90;;;;;;;2.72;59.34;100254.81;131233;1250;107580;-76
2023/04/27 00:59:48;;;;;;;14.40;7.10;;;;;;;2.70;59.55;100254.64;131382;1250;107567;-76
2023/04/27 01:02:55;;;;;;;14.40;6.80;;;;;;;2.68;59.51;100255.30;131380;1254;107363;-77
2023/04/27 01:06:01;;;;;;;12.90;6.90;;;;;;;2.64;59.61;100252.90;131403;1253;107495;-75
2023/04/27 01:09:08;;;;;;;12.70;7.20;;;;;;;2.63;59.76;100251.98;131433;1250;107382;-75
2023/04/27 01:12:13;;;;;;;12.60;6.70;;;;;;;2.61;59.64;100251.59;131325;1250;107464;-75
2023/04/27 01:15:21;;;;;;;13.20;7.20;;;;;;;2.59;59.90;100253.46;131436;1250;107306;-75
2023/04/27 01:18:26;;;;;;;21.60;11.10;;;;;;;2.57;60.02;100251.63;131384;1250;106526;-76
2023/04/27 01:21:32;;;;;;;60.90;18.20;;;;;;;2.57;60.16;100251.33;131363;1252;106868;-76
2023/04/27 01:24:37;;;;;;;40.00;14.60;;;;;;;2.53;59.95;100248.75;131391;1252;106111;-76
2023/04/27 01:27:43;;;;;;;31.00;11.40;;;;;;;2.53;60.19;100253.27;131363;1262;107527;-78
2023/04/27 01:30:50;;;;;;;17.60;8.00;;;;;;;2.52;60.09;100252.84;131302;1252;107431;-77
2023/04/27 01:33:56;;;;;;;18.30;7.10;;;;;;;2.51;60.28;100259.23;131484;1250;107462;-77
2023/04/27 01:37:01;;;;;;;13.20;6.30;;;;;;;2.50;60.35;100257.73;131239;1262;107525;-78
2023/04/27 01:40:09;;;;;;;12.60;5.90;;;;;;;2.46;60.47;100252.39;131293;1252;106510;-77
2023/04/27 01:43:14;;;;;;;10.40;5.90;;;;;;;2.43;60.41;100252.02;131231;1252;105832;-77
2023/04/27 01:46:20;;;;;;;13.20;5.70;;;;;;;2.39;60.50;100254.61;131462;1252;107500;-77
2023/04/27 01:49:26;;;;;;;11.60;5.80;;;;;;;2.37;60.49;100254.05;131357;1250;106688;-77
2023/04/27 01:52:32;;;;;;;12.20;5.30;;;;;;;2.34;60.54;100258.10;131380;1263;107510;-77
2023/04/27 01:55:38;;;;;;;12.80;5.70;;;;;;;2.31;60.47;100261.93;131377;1252;107521;-77
2023/04/27 01:58:43;;;;;;;11.10;5.60;;;;;;;2.30;60.67;100263.80;131257;1252;107619;-77
2023/04/27 02:01:49;;;;;;;13.70;6.10;;;;;;;2.26;60.61;100265.64;131311;1250;107459;-77
2023/04/27 02:04:54;;;;;;;12.20;6.00;;;;;;;2.24;60.67;100267.16;131428;1252;106873;-77
2023/04/27 02:08:00;;;;;;;10.20;5.70;;;;;;;2.19;60.72;100270.65;131405;1252;107554;-77
2023/04/27 02:11:06;;;;;;;10.50;5.70;;;;;;;2.17;60.77;100267.45;131361;1255;107528;-77
2023/04/27 02:14:11;;;;;;;10.80;5.40;;;;;;;2.12;60.88;100265.79;131199;1265;107592;-75
2023/04/27 02:17:17;;;;;;;12.20;5.50;;;;;;;2.09;60.80;100270.04;131263;1252;107463;-77
2023/04/27 02:20:24;;;;;;;10.40;5.30;;;;;;;2.05;60.89;100270.63;131430;1261;107188;-77
2023/04/27 02:23:33;;;;;;;8.70;4.60;;;;;;;2.01;61.02;100267.79;131417;1250;107771;-75
2023/04/27 02:26:40;;;;;;;11.40;5.40;;;;;;;1.97;60.96;100267.14;131308;1252;107459;-77
2023/04/27 02:29:46;;;;;;;10.60;4.90;;;;;;;1.93;60.86;100268.92;131274;1252;107489;-77
2023/04/27 02:32:51;;;;;;;8.90;4.70;;;;;;;1.90;61.04;100270.94;131455;1250;107369;-76
2023/04/27 02:35:57;;;;;;;10.10;5.00;;;;;;;1.88;61.07;100268.92;131360;1252;107517;-77
2023/04/27 02:39:02;;;;;;;9.30;5.20;;;;;;;1.85;61.12;100265.08;131537;1250;107490;-77
2023/04/27 02:42:08;;;;;;;10.20;5.70;;;;;;;1.82;61.01;100266.16;131766;1265;107552;-75
2023/04/27 02:45:14;;;;;;;8.90;4.90;;;;;;;1.79;60.99;100266.54;131295;1252;107480;-76
2023/04/27 02:48:20;;;;;;;11.40;5.80;;;;;;;1.72;61.06;100272.73;131258;1252;107436;-76
2023/04/27 02:51:25;;;;;;;8.50;5.10;;;;;;;1.70;61.29;100272.55;131549;1252;107560;-76
2023/04/27 02:54:31;;;;;;;11.40;5.70;;;;;;;1.67;61.25;100273.20;131270;1250;106426;-76
2023/04/27 02:57:37;;;;;;;8.70;4.90;;;;;;;1.65;61.40;100272.83;131235;1250;107496;-75
2023/04/27 03:00:42;;;;;;;8.00;4.80;;;;;;;1.63;61.47;100274.52;131106;1250;107651;-77
2023/04/27 03:03:48;;;;;;;10.70;5.30;;;;;;;1.62;61.48;100275.66;132709;1250;107131;-75
2023/04/27 03:06:54;;;;;;;9.10;5.30;;;;;;;1.59;61.39;100276.38;131156;1250;107655;-71
2023/04/27 03:09:59;;;;;;;7.80;4.90;;;;;;;1.57;61.28;100280.09;131241;1251;107390;-76
2023/04/27 03:13:05;;;;;;;12.60;5.10;;;;;;;1.55;61.42;100283.23;131415;1250;107381;-75
2023/04/27 03:16:12;;;;;;;10.30;5.30;;;;;;;1.51;61.56;100280.85;131247;1253;107497;-75
2023/04/27 03:19:18;;;;;;;44.80;25.80;;;;;;;1.49;61.72;100283.29;131300;1250;107868;-75
2023/04/27 03:22:23;;;;;;;57.70;34.50;;;;;;;1.47;61.75;100287.56;131096;1252;107515;-75
2023/04/27 03:25:30;;;;;;;75.10;41.10;;;;;;;1.47;61.83;100289.20;131069;1249;108107;-75
2023/04/27 03:28:36;;;;;;;40.70;23.50;;;;;;;1.45;61.84;100287.16;131433;1254;107934;-77
2023/04/27 03:31:41;;;;;;;13.20;7.90;;;;;;;1.47;61.94;100297.41;131220;1250;107661;-75
2023/04/27 03:34:47;;;;;;;14.60;8.70;;;;;;;1.49;61.97;100299.42;131117;1264;107547;-76
2023/04/27 03:37:52;;;;;;;16.60;8.60;;;;;;;1.50;62.06;100307.77;131130;1252;107586;-75
2023/04/27 03:40:59;;;;;;;22.50;13.60;;;;;;;1.58;62.11;100303.39;131124;1250;107396;-75
2023/04/27 03:44:05;;;;;;;14.60;9.10;;;;;;;1.64;62.00;100304.64;131411;1252;107881;-75
2023/04/27 03:47:12;;;;;;;20.40;12.70;;;;;;;1.72;62.15;100301.11;131094;1250;107551;-75
2023/04/27 03:50:19;;;;;;;14.10;7.50;;;;;;;1.81;62.30;100302.02;131389;1252;107259;-76
2023/04/27 03:53:24;;;;;;;10.60;6.20;;;;;;;1.93;62.20;100301.40;131488;1252;107577;-75
2023/04/27 03:56:30;;;;;;;9.50;5.30;;;;;;;2.04;62.25;100298.80;131528;1248;107466;-75
2023/04/27 03:59:36;;;;;;;12.90;6.20;;;;;;;2.13;62.38;100301.54;131146;1250;107362;-75
2023/04/27 04:02:42;;;;;;;10.30;5.10;;;;;;;2.25;62.44;100302.02;131272;1250;108445;-75
2023/04/27 04:05:48;;;;;;;11.40;7.30;;;;;;;2.36;62.55;100304.31;131142;1250;107391;-75
2023/04/27 04:08:54;;;;;;;12.60;6.50;;;;;;;2.45;62.51;100307.77;131058;1261;107271;-75
2023/04/27 04:12:00;;;;;;;11.10;6.90;;;;;;;2.53;62.51;100311.29;131095;1255;107576;-75
2023/04/27 04:15:08;;;;;;;13.30;7.10;;;;;;;2.60;62.60;100312.42;131068;1250;107362;-76
2023/04/27 04:18:13;;;;;;;15.20;7.80;;;;;;;2.67;62.77;100317.57;131112;1268;107495;-75
2023/04/27 04:21:19;;;;;;;21.00;9.80;;;;;;;2.78;62.90;100324.55;131177;1252;107508;-76
2023/04/27 04:24:25;;;;;;;17.30;8.60;;;;;;;2.91;63.13;100323.34;131237;1250;106391;-76
2023/04/27 04:27:32;;;;;;;21.50;10.00;;;;;;;3.06;63.37;100325.16;131500;1251;107509;-76
2023/04/27 04:30:38;;;;;;;17.30;9.60;;;;;;;3.30;63.36;100327.42;131458;1247;107364;-74
2023/04/27 04:33:44;;;;;;;22.70;11.40;;;;;;;3.55;63.61;100325.14;131407;1252;107237;-74
2023/04/27 04:36:51;;;;;;;17.60;9.60;;;;;;;3.80;63.54;100325.86;131338;1253;107496;-74
2023/04/27 04:39:58;;;;;;;17.00;9.50;;;;;;;4.06;63.46;100325.61;131417;1255;107495;-78
2023/04/27 04:43:04;;;;;;;17.80;9.70;;;;;;;4.32;63.47;100325.89;131146;1254;107724;-77
2023/04/27 04:46:10;;;;;;;15.40;9.40;;;;;;;4.55;63.38;100321.41;131068;1248;107409;-75
2023/04/27 04:49:15;;;;;;;15.00;10.10;;;;;;;4.78;63.35;100323.43;131005;1253;107513;-76
2023/04/27 04:52:21;;;;;;;14.50;9.00;;;;;;;5.01;63.34;100322.91;131232;1250;107353;-75
2023/04/27 04:55:28;;;;;;;16.80;9.60;;;;;;;5.20;63.27;100321.84;131144;1254;107289;-75
2023/04/27 04:58:34;;;;;;;16.80;9.00;;;;;;;5.42;62.99;100326.15;131138;1253;107978;-75
2023/04/27 05:01:39;;;;;;;16.40;9.40;;;;;;;5.60;62.98;100327.23;131098;1248;107613;-77
2023/04/27 05:04:45;;;;;;;16.50;9.10;;;;;;;5.80;62.95;100327.98;131136;1250;107333;-75
2023/04/27 05:07:50;;;;;;;17.10;9.60;;;;;;;5.99;63.17;100327.95;131028;1255;107475;-76
2023/04/27 05:10:56;;;;;;;15.40;9.60;;;;;;;6.17;62.82;100326.13;131047;1252;107514;-75
2023/04/27 05:14:02;;;;;;;12.90;8.60;;;;;;;6.35;62.28;100332.50;131220;1250;107612;-76
2023/04/27 05:17:07;;;;;;;15.80;9.70;;;;;;;6.47;62.46;100330.92;131063;1254;105376;-77
2023/04/27 05:20:13;;;;;;;15.00;8.70;;;;;;;6.64;61.79;100334.86;131097;1253;107510;-76
2023/04/27 05:23:18;;;;;;;15.60;8.80;;;;;;;6.74;62.02;100328.77;131486;1253;106540;-73
2023/04/27 05:26:25;;;;;;;14.80;8.50;;;;;;;6.89;61.51;100337.11;131403;1253;107529;-77
2023/04/27 05:29:31;;;;;;;15.70;9.40;;;;;;;7.02;61.67;100332.84;131556;1248;107388;-74
2023/04/27 05:32:37;;;;;;;13.70;8.80;;;;;;;7.14;61.33;100332.37;131424;1249;107599;-74
2023/04/27 05:35:42;;;;;;;11.60;8.50;;;;;;;7.40;61.68;100335.67;131334;1256;107386;-76
2023/04/27 05:38:47;;;;;;;15.40;8.60;;;;;;;7.66;61.48;100335.88;131188;1263;107575;-75
2023/04/27 05:41:53;;;;;;;14.80;8.80;;;;;;;7.82;60.99;100336.31;131504;1251;107388;-75
2023/04/27 05:44:58;;;;;;;15.80;9.30;;;;;;;7.80;61.16;100346.39;131089;1250;107592;-76
2023/04/27 05:48:04;;;;;;;15.50;8.90;;;;;;;7.74;60.64;100349.69;131140;1252;107486;-76
2023/04/27 05:51:09;;;;;;;11.90;8.10;;;;;;;7.44;59.92;100355.29;131128;1255;107629;-76
2023/04/27 05:54:15;;;;;;;12.70;8.70;;;;;;;7.35;60.90;100354.28;131112;1253;107535;-76
2023/04/27 05:57:21;;;;;;;16.70;10.20;;;;;;;7.30;59.98;100363.77;131231;1255;107525;-77
2023/04/27 06:00:27;;;;;;;14.70;9.60;;;;;;;7.24;60.77;100359.80;131114;1250;107346;-76
2023/04/27 06:03:32;;;;;;;16.40;10.30;;;;;;;7.25;60.64;100363.31;131094;1252;105538;-75
2023/04/27 06:06:38;;;;;;;16.50;10.00;;;;;;;7.22;60.15;100366.73;131133;1254;107607;-75
2023/04/27 06:09:43;;;;;;;13.60;9.30;;;;;;;7.11;60.05;100366.40;131061;1252;107396;-76
2023/04/27 06:12:49;;;;;;;16.30;9.70;;;;;;;6.99;59.70;100366.30;131124;1256;107426;-76
2023/04/27 06:15:55;;;;;;;14.30;9.60;;;;;;;6.90;60.14;100367.77;131113;1253;107240;-76
2023/04/27 06:19:00;;;;;;;16.70;11.70;;;;;;;6.92;60.42;100368.17;131323;1261;107236;-76
2023/04/27 06:22:06;;;;;;;76.50;40.60;;;;;;;6.97;60.86;100368.80;131384;1253;107516;-76
2023/04/27 06:25:11;;;;;;;35.80;23.20;;;;;;;7.04;60.60;100369.92;131239;1252;107581;-75
2023/04/27 06:28:17;;;;;;;34.40;22.20;;;;;;;7.17;60.86;100372.98;131182;1252;105657;-75
2023/04/27 06:31:22;;;;;;;21.00;13.20;;;;;;;7.29;60.66;100372.34;131115;1261;107244;-75
2023/04/27 06:34:28;;;;;;;14.10;9.80;;;;;;;7.37;60.22;100373.27;131174;1267;107247;-76
2023/04/27 06:37:33;;;;;;;18.70;11.80;;;;;;;7.34;59.67;100378.83;131058;1251;107460;-76
2023/04/27 06:40:39;;;;;;;302.20;163.70;;;;;;;7.36;60.60;100377.92;131232;1256;107527;-77
2023/04/27 06:43:44;;;;;;;55.30;26.40;;;;;;;7.47;60.53;100381.63;131142;1261;107525;-77
2023/04/27 06:46:50;;;;;;;22.20;12.30;;;;;;;7.57;60.47;100380.40;131414;1259;107525;-76
2023/04/27 06:49:55;;;;;;;44.30;30.40;;;;;;;7.63;60.25;100384.63;131206;1267;107528;-76
2023/04/27 06:53:01;;;;;;;48.00;35.80;;;;;;;7.70;60.36;100380.20;131176;1252;108656;-74
2023/04/27 06:56:10;;;;;;;21.30;14.60;;;;;;;7.81;60.32;100385.91;131077;1252;107540;-76
2023/04/27 06:59:16;;;;;;;16.40;10.50;;;;;;;7.89;59.87;100389.39;131185;1265;107330;-74
2023/04/27 07:02:21;;;;;;;13.70;9.00;;;;;;;7.93;59.62;100392.73;131301;1258;107394;-75
2023/04/27 07:05:27;;;;;;;15.00;9.30;;;;;;;7.95;59.74;100389.75;131068;1253;107534;-75
2023/04/27 07:08:32;;;;;;;13.20;8.50;;;;;;;7.99;59.10;100396.64;131134;1248;107483;-76
2023/04/27 07:11:38;;;;;;;12.60;7.10;;;;;;;7.99;58.39;100394.30;131415;1253;106482;-73
2023/04/27 07:14:43;;;;;;;14.30;9.30;;;;;;;8.01;58.14;100394.93;131269;1253;107811;-74
2023/04/27 07:17:48;;;;;;;21.40;12.70;;;;;;;8.11;59.39;100389.56;131306;1260;107594;-74
2023/04/27 07:20:54;;;;;;;18.60;11.30;;;;;;;8.25;58.86;100392.23;131219;1263;107110;-76
2023/04/27 07:24:00;;;;;;;16.10;9.40;;;;;;;8.37;59.30;100393.35;131096;1253;107387;-74
2023/04/27 07:27:05;;;;;;;16.90;11.90;;;;;;;8.53;58.94;100394.29;131200;1253;107527;-75
2023/04/27 07:30:13;;;;;;;13.10;8.30;;;;;;;8.69;59.24;100391.22;131131;1251;107510;-76
2023/04/27 07:33:19;;;;;;;12.70;8.50;;;;;;;8.77;56.81;100396.94;131153;1253;106636;-74
2023/04/27 07:36:25;;;;;;;27.20;20.60;;;;;;;8.78;57.04;100391.68;131405;1254;107849;-74
2023/04/27 07:39:31;;;;;;;17.40;11.70;;;;;;;8.91;57.84;100391.72;131307;1254;107565;-74
2023/04/27 07:42:40;;;;;;;14.70;9.90;;;;;;;9.23;58.81;100387.80;131235;1250;107488;-74
2023/04/27 07:45:45;;;;;;;11.90;8.60;;;;;;;9.69;57.36;100394.18;131088;1253;106760;-74
2023/04/27 07:48:51;;;;;;;11.40;7.00;;;;;;;10.01;56.16;100392.42;131037;1261;107489;-75
2023/04/27 07:51:57;;;;;;;11.10;7.60;;;;;;;10.11;55.80;100392.19;131164;1254;107445;-75
2023/04/27 07:55:03;;;;;;;15.60;9.10;;;;;;;10.27;56.64;100386.94;131269;1248;107508;-74
2023/04/27 07:58:09;;;;;;;38.00;22.00;;;;;;;10.53;55.61;100386.85;131357;1261;106298;-75
2023/04/27 08:01:14;;;;;;;49.70;28.80;;;;;;;10.64;55.85;100390.69;131298;1253;107356;-74
2023/04/27 08:04:20;;;;;;;12.00;7.10;;;;;;;10.60;54.71;100393.64;131443;1254;107497;-74
2023/04/27 08:07:25;;;;;;;11.70;7.50;;;;;;;10.52;55.45;100395.57;131467;1253;107351;-74
2023/04/27 08:10:31;;;;;;;23.90;16.70;;;;;;;10.60;56.45;100395.80;131410;1263;105670;-74
2023/04/27 08:13:36;;;;;;;18.20;12.00;;;;;;;10.71;55.00;100399.42;131185;1262;107491;-76
2023/04/27 08:16:43;;;;;;;40.00;25.20;;;;;;;10.68;55.98;100399.65;131264;1253;107366;-75
2023/04/27 08:19:49;;;;;;;37.50;24.40;;;;;;;10.81;56.09;100397.48;131290;1253;108214;-75
2023/04/27 08:22:54;;;;;;;9.40;6.00;;;;;;;10.93;54.37;100400.04;131087;1254;107478;-75
2023/04/27 08:26:00;;;;;;;21.20;14.60;;;;;;;10.80;54.38;100403.54;131141;1263;107249;-73
2023/04/27 08:29:05;;;;;;;18.40;12.10;;;;;;;10.68;54.79;100404.54;131400;1253;107374;-74
2023/04/27 08:32:11;;;;;;;33.40;22.40;;;;;;;10.65;55.36;100406.94;131167;1261;107540;-75
2023/04/27 08:35:17;;;;;;;10.60;7.20;;;;;;;10.60;54.86;100405.95;131192;1248;107367;-74
2023/04/27 08:38:22;;;;;;;9.80;6.60;;;;;;;10.41;53.71;100413.88;131488;1260;106202;-74
2023/04/27 08:41:28;;;;;;;20.50;13.80;;;;;;;10.24;53.72;100412.26;131448;1261;106345;-74
2023/04/27 08:44:38;;;;;;;90.60;49.90;;;;;;;10.28;54.97;100410.45;131521;1253;107406;-73
2023/04/27 08:47:44;;;;;;;38.40;23.70;;;;;;;10.67;55.19;100406.34;131190;1248;107240;-74
2023/04/27 08:50:52;;;;;;;58.70;35.00;;;;;;;11.04;54.30;100398.96;131161;1254;107545;-73
2023/04/27 08:53:59;;;;;;;33.70;17.70;;;;;;;11.33;54.56;100395.55;131096;1252;107463;-74
2023/04/27 08:57:10;;;;;;;66.90;30.80;;;;;;;11.34;51.02;100402.38;131472;1251;107500;-76
2023/04/27 09:00:19;;;;;;;57.30;31.30;;;;;;;11.40;53.42;100398.77;131436;1252;107584;-74
2023/04/27 09:03:27;;;;;;;14.70;9.30;;;;;;;11.32;51.84;100406.70;131502;1250;107247;-74
2023/04/27 09:06:35;;;;;;;9.30;5.80;;;;;;;11.27;53.15;100400.37;131359;1255;107337;-74
2023/04/27 09:09:41;;;;;;;7.60;4.70;;;;;;;11.27;51.01;100408.12;131411;1254;107540;-74
2023/04/27 09:12:56;;;;;;;9.70;5.40;;;;;;;11.01;50.93;100414.20;131327;1251;107393;-74
2023/04/27 09:16:02;;;;;;;6.30;4.50;;;;;;;11.06;52.89;100408.55;131215;1248;107514;-74
2023/04/27 09:19:08;;;;;;;6.10;4.50;;;;;;;11.43;52.78;100404.67;131239;1253;107448;-74
2023/04/27 09:22:14;;;;;;;7.80;3.80;;;;;;;11.84;52.56;100400.40;131390;1248;107386;-74
2023/04/27 09:25:28;;;;;;;8.60;5.00;;;;;;;11.99;49.35;100401.47;131438;1252;107561;-74
2023/04/27 09:28:34;;;;;;;7.50;4.80;;;;;;;11.77;50.65;100395.64;131506;1253;107536;-74
2023/04/27 09:31:40;;;;;;;6.00;4.50;;;;;;;11.81;50.56;100389.30;131218;1247;107220;-75
2023/04/27 09:34:46;;;;;;;9.20;5.20;;;;;;;11.78;50.04;100388.79;131046;1254;107475;-74
2023/04/27 09:37:52;;;;;;;11.30;6.80;;;;;;;11.58;48.69;100397.15;131412;1260;107527;-73
2023/04/27 09:40:59;;;;;;;11.50;6.70;;;;;;;11.39;48.97;100398.34;131202;1254;107511;-74
2023/04/27 09:44:05;;;;;;;12.30;6.80;;;;;;;11.28;49.55;100398.41;131244;1260;107367;-74
2023/04/27 09:47:13;;;;;;;7.30;5.10;;;;;;;11.13;47.24;100400.73;131105;1253;106690;-75
2023/04/27 09:50:20;;;;;;;6.20;4.50;;;;;;;11.01;48.69;100390.39;131097;1254;107574;-75
2023/04/27 09:53:30;;;;;;;7.90;4.30;;;;;;;11.18;50.44;100384.23;131097;1254;108447;-74
2023/04/27 09:56:57;;;;;;;9.20;6.50;;;;;;;11.44;48.60;100385.05;131157;1254;107350;-74
2023/04/27 10:00:17;;;;;;;7.10;3.70;;;;;;;11.62;49.02;100386.39;131232;1253;107234;-74
2023/04/27 10:03:31;;;;;;;8.70;3.80;;;;;;;11.76;49.45;100386.74;131400;1257;107295;-74
2023/04/27 10:06:53;;;;;;;12.30;5.30;;;;;;;11.91;48.84;100391.44;131379;1254;107558;-73
2023/04/27 10:10:03;;;;;;;5.20;3.80;;;;;;;11.73;45.93;100396.48;131439;1253;107537;-73
2023/04/27 10:13:20;;;;;;;7.40;4.70;;;;;;;11.52;45.77;100396.33;131294;1264;107226;-73
2023/04/27 10:16:25;;;;;;;8.20;4.80;;;;;;;11.47;47.32;100392.92;131223;1254;105691;-74
2023/04/27 10:19:31;;;;;;;8.40;5.90;;;;;;;11.45;47.61;100397.95;131146;1254;107596;-73
2023/04/27 10:22:41;;;;;;;15.90;8.40;;;;;;;11.30;45.94;100404.17;131384;1253;107539;-74
2023/04/27 10:25:47;;;;;;;6.10;3.90;;;;;;;11.26;47.42;100406.17;131434;1254;107481;-74
2023/04/27 10:29:05;;;;;;;6.70;3.70;;;;;;;11.32;47.76;100403.42;131243;1257;107262;-74
2023/04/27 10:32:13;;;;;;;5.80;3.30;;;;;;;11.44;47.80;100402.66;131210;1252;107005;-74
2023/04/27 10:35:20;;;;;;;6.50;3.30;;;;;;;11.34;47.50;100404.65;131169;1254;107367;-73
2023/04/27 10:38:31;;;;;;;7.20;4.10;;;;;;;11.23;46.38;100402.30;131233;1264;107257;-74
2023/04/27 10:41:37;;;;;;;5.80;3.70;;;;;;;11.09;47.65;100406.83;131239;1254;107437;-73
2023/04/27 10:44:43;;;;;;;5.20;3.50;;;;;;;10.86;46.49;100411.21;131183;1264;107542;-74
2023/04/27 10:47:48;;;;;;;5.30;3.30;;;;;;;10.72;47.71;100411.61;131384;1253;107452;-75
2023/04/27 10:50:54;;;;;;;6.60;3.50;;;;;;;10.76;47.80;100413.09;131398;1254;107466;-75
2023/04/27 10:54:00;;;;;;;6.50;4.10;;;;;;;10.91;48.03;100408.48;131273;1261;105517;-75
2023/04/27 10:57:11;;;;;;;5.30;3.30;;;;;;;10.92;44.67;100414.11;131082;1251;107625;-75
2023/04/27 11:00:22;;;;;;;6.10;3.70;;;;;;;10.75;44.28;100414.48;131197;1254;107851;-75
2023/04/27 11:03:28;;;;;;;5.00;3.10;;;;;;;10.63;44.47;100411.56;131274;1248;107231;-74
2023/04/27 11:06:41;;;;;;;7.80;4.70;;;;;;;10.66;45.73;100414.98;131412;1253;107517;-73
2023/04/27 11:09:50;;;;;;;4.30;3.30;;;;;;;10.92;46.13;100407.59;131227;1257;107432;-74
2023/04/27 11:12:56;;;;;;;4.40;3.00;;;;;;;11.22;45.98;100405.91;131450;1254;107503;-74
2023/04/27 11:16:04;;;;;;;4.40;3.10;;;;;;;11.56;46.20;100404.45;131155;1263;106671;-74
2023/04/27 11:19:10;;;;;;;5.80;2.70;;;;;;;11.85;42.72;100405.95;131091;1252;107450;-74
2023/04/27 11:22:16;;;;;;;5.30;2.70;;;;;;;11.86;42.33;100408.02;131115;1255;107432;-74
2023/04/27 11:25:30;;;;;;;5.40;3.60;;;;;;;11.94;44.54;100404.55;131155;1248;107359;-74
2023/04/27 11:28:35;;;;;;;5.60;3.10;;;;;;;11.94;44.64;100401.82;131211;1254;109166;-74
2023/04/27 11:31:46;;;;;;;8.60;4.10;;;;;;;11.84;42.86;100406.08;131219;1256;107417;-75
2023/04/27 11:34:55;;;;;;;4.80;3.50;;;;;;;11.73;44.53;100402.92;131345;1250;107227;-76
2023/04/27 11:38:01;;;;;;;11.20;7.30;;;;;;;11.85;44.20;100404.15;131206;1254;107608;-74
2023/04/27 11:41:07;;;;;;;5.40;2.50;;;;;;;11.89;44.10;100406.45;131121;1251;107536;-74
2023/04/27 11:44:13;;;;;;;5.60;2.20;;;;;;;12.03;44.39;100403.78;131113;1262;108239;-74
2023/04/27 11:47:20;;;;;;;4.50;2.40;;;;;;;12.15;42.78;100408.36;131182;1250;107505;-74
2023/04/27 11:50:27;;;;;;;5.50;3.10;;;;;;;11.89;42.14;100403.77;131064;1253;106844;-74
2023/04/27 11:53:34;;;;;;;10.70;5.30;;;;;;;11.52;40.91;100408.96;131113;1253;107510;-74
2023/04/27 11:56:41;;;;;;;13.40;7.60;;;;;;;11.18;41.81;100421.42;131186;1253;107499;-77
2023/04/27 11:59:46;;;;;;;21.60;9.60;;;;;;;10.80;42.58;100420.89;131234;1254;107494;-74
2023/04/27 12:02:52;;;;;;;36.00;17.20;;;;;;;10.53;42.50;100429.56;131126;1248;107203;-74
2023/04/27 12:05:58;;;;;;;9.90;6.10;;;;;;;10.36;43.17;100430.16;131135;1263;107487;-74
2023/04/27 12:09:04;;;;;;;6.00;3.50;;;;;;;10.20;43.27;100430.55;131130;1253;107540;-75
2023/04/27 12:12:09;;;;;;;6.40;3.50;;;;;;;10.20;43.84;100430.42;131277;1253;107529;-75
2023/04/27 12:15:15;;;;;;;4.70;3.20;;;;;;;10.21;43.65;100428.90;131217;1253;107365;-75
2023/04/27 12:18:21;;;;;;;5.30;3.00;;;;;;;10.32;43.95;100424.33;131176;1253;107511;-75
2023/04/27 12:21:26;;;;;;;5.50;2.80;;;;;;;10.51;44.26;100421.45;131229;1248;106090;-75
2023/04/27 12:24:32;;;;;;;6.40;3.00;;;;;;;10.67;43.73;100428.23;131112;1251;107459;-75
2023/04/27 12:27:37;;;;;;;5.40;2.90;;;;;;;10.77;43.63;100421.05;131107;1253;107487;-75
2023/04/27 12:30:43;;;;;;;4.20;2.80;;;;;;;10.84;43.85;100420.00;131055;1250;107848;-74
2023/04/27 12:33:49;;;;;;;6.70;3.40;;;;;;;10.96;43.99;100422.55;131193;1249;107535;-73
2023/04/27 12:36:55;;;;;;;4.60;2.50;;;;;;;11.11;42.69;100419.97;131116;1252;107391;-74
2023/04/27 12:40:02;;;;;;;10.50;4.60;;;;;;;11.15;42.92;100423.70;131150;1252;107636;-74
2023/04/27 12:43:11;;;;;;;6.40;3.10;;;;;;;11.24;43.19;100421.21;131191;1253;106855;-74
2023/04/27 12:46:17;;;;;;;5.80;3.50;;;;;;;11.31;42.72;100419.45;131209;1254;107351;-74
2023/04/27 12:49:23;;;;;;;5.50;3.20;;;;;;;11.31;42.53;100421.21;131435;1248;107229;-74
2023/04/27 12:52:28;;;;;;;6.10;3.90;;;;;;;11.29;42.44;100429.11;131316;1264;107279;-74
2023/04/27 12:55:35;;;;;;;19.40;14.50;;;;;;;11.19;41.90;100432.88;131101;1254;107466;-75
2023/04/27 12:58:41;;;;;;;6.00;4.00;;;;;;;11.22;43.55;100431.88;131244;1253;106764;-75
2023/04/27 13:01:46;;;;;;;5.40;3.50;;;;;;;11.34;41.57;100434.77;131200;1256;107494;-75
2023/04/27 13:04:52;;;;;;;23.10;11.10;;;;;;;11.35;40.18;100432.77;131221;1250;107261;-76
2023/04/27 13:07:58;;;;;;;10.90;6.20;;;;;;;11.52;42.97;100428.03;131193;1251;106584;-74
2023/04/27 13:11:03;;;;;;;6.20;3.90;;;;;;;11.85;42.97;100422.39;131200;1264;107507;-74
2023/04/27 13:14:11;;;;;;;11.40;7.00;;;;;;;12.10;42.42;100426.38;131157;1260;107300;-75
2023/04/27 13:17:16;;;;;;;9.90;6.90;;;;;;;12.24;41.90;100431.46;131379;1252;107223;-74
2023/04/27 13:20:22;;;;;;;20.50;16.50;;;;;;;12.30;42.39;100435.05;131301;1249;107086;-74
2023/04/27 13:23:28;;;;;;;5.30;3.10;;;;;;;12.36;42.04;100437.67;131138;1248;107378;-74
2023/04/27 13:26:34;;;;;;;58.00;37.00;;;;;;;12.33;41.71;100443.48;131282;1252;106727;-74
2023/04/27 13:29:41;;;;;;;100.10;57.50;;;;;;;12.36;42.26;100439.05;131193;1254;107531;-76
2023/04/27 13:32:46;;;;;;;19.70;13.30;;;;;;;12.43;41.81;100441.06;131241;1252;108337;-74
2023/04/27 13:35:53;;;;;;;8.80;6.20;;;;;;;12.40;41.32;100440.27;131304;1253;105669;-75
2023/04/27 13:39:02;;;;;;;8.10;6.80;;;;;;;12.42;41.99;100438.05;131157;1249;107473;-72
2023/04/27 13:42:08;;;;;;;6.70;4.70;;;;;;;12.54;42.17;100445.21;131268;1252;107537;-76
2023/04/27 13:45:14;;;;;;;4.70;2.60;;;;;;;12.49;40.50;100449.85;131220;1261;107519;-74
2023/04/27 13:48:20;;;;;;;14.00;10.00;;;;;;;12.15;40.34;100441.74;131431;1253;107426;-74
2023/04/27 13:51:28;;;;;;;5.10;2.90;;;;;;;12.08;41.45;100441.10;131501;1256;107482;-75
2023/04/27 13:54:34;;;;;;;7.20;3.40;;;;;;;12.02;41.72;100443.34;131180;1252;107406;-74
2023/04/27 13:57:39;;;;;;;4.90;2.50;;;;;;;12.02;41.61;100441.15;131270;1252;107549;-74
2023/04/27 14:00:46;;;;;;;5.60;2.60;;;;;;;12.05;41.01;100445.84;131489;1250;107376;-76
2023/04/27 14:03:52;;;;;;;4.90;2.40;;;;;;;11.94;40.96;100440.13;131463;1254;107159;-74